createdAt,value
2018-07-31T00:00:45.015Z,4.00
2018-07-31T00:01:45.027Z,4.00
2018-07-31T00:02:45.030Z,4.00
2018-07-31T00:03:45.048Z,4.00
2018-07-31T00:04:45.055Z,4.00
2018-07-31T00:05:45.056Z,4.00
2018-07-31T00:06:45.078Z,4.00
2018-07-31T00:07:45.075Z,4.00
2018-07-31T00:08:45.081Z,4.00
2018-07-31T00:09:45.098Z,4.00
2018-07-31T00:10:45.111Z,4.00
2018-07-31T00:11:45.103Z,4.00
2018-07-31T00:12:45.124Z,4.00
2018-07-31T00:13:45.132Z,4.00
2018-07-31T00:14:45.127Z,4.00
2018-07-31T00:15:45.143Z,4.00
2018-07-31T00:16:45.153Z,4.00
2018-07-31T00:17:45.267Z,4.00
2018-07-31T00:18:45.163Z,4.00
2018-07-31T00:19:45.169Z,4.00
2018-07-31T00:20:45.187Z,4.00
2018-07-31T00:21:45.186Z,4.00
2018-07-31T00:22:45.200Z,4.00
2018-07-31T00:23:45.202Z,4.00
2018-07-31T00:24:45.759Z,4.00
2018-07-31T00:25:45.228Z,4.00
2018-07-31T00:26:45.226Z,4.00
2018-07-31T00:27:45.243Z,4.00
2018-07-31T00:28:45.250Z,4.00
2018-07-31T00:29:45.261Z,4.00
2018-07-31T00:30:45.272Z,4.00
2018-07-31T00:31:45.279Z,4.00
2018-07-31T00:32:45.287Z,4.00
2018-07-31T00:33:45.299Z,4.00
2018-07-31T00:34:45.304Z,4.00
2018-07-31T00:35:45.312Z,4.00
2018-07-31T00:36:45.323Z,4.00
2018-07-31T00:37:45.322Z,4.00
2018-07-31T00:38:45.330Z,4.00
2018-07-31T00:39:45.337Z,4.00
2018-07-31T00:40:45.346Z,4.00
2018-07-31T00:41:45.357Z,4.00
2018-07-31T00:42:45.361Z,4.00
2018-07-31T00:43:45.372Z,4.00
2018-07-31T00:44:45.376Z,4.00
2018-07-31T00:45:45.389Z,4.00
2018-07-31T00:46:45.391Z,4.00
2018-07-31T00:47:45.403Z,4.00
2018-07-31T00:48:45.411Z,4.00
2018-07-31T00:49:45.426Z,4.00
2018-07-31T00:50:45.427Z,4.00
2018-07-31T00:51:45.433Z,4.00
2018-07-31T00:52:45.447Z,4.00
2018-07-31T00:53:45.455Z,4.00
2018-07-31T00:54:45.465Z,4.00
2018-07-31T00:55:45.465Z,4.00
2018-07-31T00:56:45.484Z,4.00
2018-07-31T00:57:45.485Z,4.00
2018-07-31T00:58:45.490Z,4.00
2018-07-31T00:59:45.500Z,4.00
2018-07-31T01:00:45.502Z,4.00
2018-07-31T01:01:45.528Z,4.00
2018-07-31T01:02:45.528Z,4.00
2018-07-31T01:03:45.546Z,4.00
2018-07-31T01:04:45.551Z,4.00
2018-07-31T01:05:45.548Z,4.00
2018-07-31T01:06:45.606Z,4.00
2018-07-31T01:07:45.561Z,4.00
2018-07-31T01:08:45.580Z,4.00
2018-07-31T01:09:45.573Z,4.00
2018-07-31T01:10:45.594Z,4.00
2018-07-31T01:11:45.589Z,4.00
2018-07-31T01:12:45.608Z,4.00
2018-07-31T01:13:45.614Z,4.00
2018-07-31T01:14:45.623Z,4.00
2018-07-31T01:15:45.634Z,4.00
2018-07-31T01:16:45.643Z,4.00
2018-07-31T01:17:45.653Z,4.00
2018-07-31T01:18:45.658Z,4.00
2018-07-31T01:19:45.656Z,4.00
2018-07-31T01:20:45.669Z,4.00
2018-07-31T01:21:45.675Z,4.00
2018-07-31T01:22:45.685Z,4.00
2018-07-31T01:23:45.692Z,4.00
2018-07-31T01:24:45.698Z,4.00
2018-07-31T01:25:45.711Z,4.00
2018-07-31T01:26:45.714Z,4.00
2018-07-31T01:27:45.720Z,4.00
2018-07-31T01:28:45.731Z,4.00
2018-07-31T01:29:45.735Z,4.00
2018-07-31T01:30:45.742Z,4.00
2018-07-31T01:31:45.753Z,4.00
2018-07-31T01:32:45.761Z,4.00
2018-07-31T01:33:45.772Z,4.00
2018-07-31T01:34:45.775Z,4.00
2018-07-31T01:35:45.788Z,4.00
2018-07-31T01:36:45.790Z,4.00
2018-07-31T01:37:45.803Z,4.00
2018-07-31T01:38:45.809Z,4.00
2018-07-31T01:39:45.813Z,4.00
2018-07-31T01:40:45.822Z,4.00
2018-07-31T01:41:45.830Z,4.00
2018-07-31T01:42:45.840Z,4.00
2018-07-31T01:43:45.839Z,4.00
2018-07-31T01:44:45.853Z,4.00
2018-07-31T01:45:45.866Z,4.00
2018-07-31T01:46:45.864Z,4.00
2018-07-31T01:47:45.885Z,4.00
2018-07-31T01:48:45.882Z,4.00
2018-07-31T01:49:45.896Z,4.00
2018-07-31T01:50:45.903Z,4.00
2018-07-31T01:51:45.906Z,4.00
2018-07-31T01:52:45.920Z,4.00
2018-07-31T01:53:45.930Z,4.00
2018-07-31T01:54:45.925Z,4.00
2018-07-31T01:55:45.940Z,4.00
2018-07-31T01:56:45.944Z,4.00
2018-07-31T01:57:45.959Z,4.00
2018-07-31T01:58:45.977Z,4.00
2018-07-31T01:59:46.010Z,4.00
2018-07-31T02:00:45.982Z,4.00
2018-07-31T02:01:45.994Z,4.00
2018-07-31T02:02:45.993Z,4.00
2018-07-31T02:03:46.000Z,4.00
2018-07-31T02:04:46.009Z,4.00
2018-07-31T02:05:46.012Z,4.00
2018-07-31T02:06:46.025Z,4.00
2018-07-31T02:07:46.040Z,4.00
2018-07-31T02:08:46.044Z,4.00
2018-07-31T02:09:46.059Z,4.00
2018-07-31T02:10:46.080Z,4.00
2018-07-31T02:11:46.063Z,4.00
2018-07-31T02:12:46.110Z,4.00
2018-07-31T02:13:46.072Z,4.00
2018-07-31T02:14:46.085Z,4.00
2018-07-31T02:15:46.093Z,4.00
2018-07-31T02:16:46.101Z,4.00
2018-07-31T02:17:46.115Z,4.00
2018-07-31T02:18:46.153Z,4.00
2018-07-31T02:19:46.125Z,4.00
2018-07-31T02:20:46.157Z,4.00
2018-07-31T02:21:46.138Z,4.00
2018-07-31T02:22:46.146Z,4.00
2018-07-31T02:23:46.149Z,4.00
2018-07-31T02:24:46.197Z,4.00
2018-07-31T02:25:46.164Z,4.00
2018-07-31T02:26:46.167Z,4.00
2018-07-31T02:27:46.183Z,4.00
2018-07-31T02:28:46.251Z,4.00
2018-07-31T02:29:46.214Z,4.00
2018-07-31T02:30:46.216Z,4.00
2018-07-31T02:31:46.207Z,4.00
2018-07-31T02:32:46.239Z,4.00
2018-07-31T02:33:46.237Z,4.00
2018-07-31T02:34:46.256Z,4.00
2018-07-31T02:35:46.240Z,4.00
2018-07-31T02:36:46.272Z,4.00
2018-07-31T02:37:46.288Z,4.00
2018-07-31T02:38:46.283Z,4.00
2018-07-31T02:39:46.289Z,4.00
2018-07-31T02:40:46.300Z,4.00
2018-07-31T02:41:46.281Z,4.00
2018-07-31T02:42:46.315Z,4.00
2018-07-31T02:43:46.324Z,4.00
2018-07-31T02:44:46.334Z,4.00
2018-07-31T02:45:46.344Z,4.00
2018-07-31T02:46:46.407Z,4.00
2018-07-31T02:47:46.345Z,4.00
2018-07-31T02:48:46.362Z,4.00
2018-07-31T02:49:46.359Z,4.00
2018-07-31T02:50:46.379Z,4.00
2018-07-31T02:51:46.376Z,4.00
2018-07-31T02:52:46.394Z,4.00
2018-07-31T02:53:46.417Z,4.00
2018-07-31T02:54:46.411Z,4.00
2018-07-31T02:55:46.412Z,4.00
2018-07-31T02:56:46.416Z,4.00
2018-07-31T02:57:46.417Z,4.00
2018-07-31T02:58:46.433Z,4.00
2018-07-31T02:59:46.454Z,4.00
2018-07-31T03:00:46.439Z,4.00
2018-07-31T03:01:46.453Z,0.00
2018-07-31T03:02:46.453Z,4.00
2018-07-31T03:03:46.455Z,0.00
2018-07-31T03:04:46.466Z,0.00
2018-07-31T03:05:46.479Z,4.00
2018-07-31T03:06:46.486Z,4.00
2018-07-31T03:07:46.495Z,4.00
2018-07-31T03:08:46.501Z,4.00
2018-07-31T03:09:47.328Z,4.00
2018-07-31T03:10:46.502Z,4.00
2018-07-31T03:11:46.505Z,4.00
2018-07-31T03:12:46.517Z,4.00
2018-07-31T03:13:46.521Z,8.00
2018-07-31T03:14:46.529Z,4.00
2018-07-31T03:15:46.534Z,4.00
2018-07-31T03:16:46.548Z,8.00
2018-07-31T03:17:46.546Z,8.00
2018-07-31T03:18:46.558Z,4.00
2018-07-31T03:19:46.563Z,8.00
2018-07-31T03:20:46.574Z,8.00
2018-07-31T03:21:46.584Z,8.00
2018-07-31T03:22:46.584Z,8.00
2018-07-31T03:23:46.593Z,12.00
2018-07-31T03:24:46.603Z,12.00
2018-07-31T03:25:46.600Z,12.00
2018-07-31T03:26:46.611Z,16.00
2018-07-31T03:27:46.620Z,16.00
2018-07-31T03:28:46.636Z,12.00
2018-07-31T03:29:47.325Z,12.00
2018-07-31T03:30:46.642Z,16.00
2018-07-31T03:31:46.646Z,20.00
2018-07-31T03:32:46.660Z,24.00
2018-07-31T03:33:46.663Z,28.00
2018-07-31T03:34:46.672Z,28.00
2018-07-31T03:35:46.683Z,32.00
2018-07-31T03:36:46.681Z,36.00
2018-07-31T03:37:46.695Z,40.00
2018-07-31T03:38:46.708Z,44.00
2018-07-31T03:39:46.707Z,48.00
2018-07-31T03:40:46.712Z,56.00
2018-07-31T03:41:46.726Z,60.00
2018-07-31T03:42:46.730Z,68.00
2018-07-31T03:43:46.738Z,76.00
2018-07-31T03:44:46.746Z,84.00
2018-07-31T03:45:46.749Z,92.00
2018-07-31T03:46:46.757Z,100.00
2018-07-31T03:47:46.764Z,108.00
2018-07-31T03:48:46.774Z,120.00
2018-07-31T03:49:46.771Z,128.00
2018-07-31T03:50:47.330Z,144.00
2018-07-31T03:51:46.789Z,148.00
2018-07-31T03:52:46.809Z,160.00
2018-07-31T03:53:46.812Z,176.00
2018-07-31T03:54:46.818Z,184.00
2018-07-31T03:55:46.815Z,200.00
2018-07-31T03:56:46.831Z,212.00
2018-07-31T03:57:46.829Z,228.00
2018-07-31T03:58:46.851Z,244.00
2018-07-31T03:59:46.849Z,260.00
2018-07-31T04:00:46.866Z,276.00
2018-07-31T04:01:47.836Z,292.00
2018-07-31T04:02:46.866Z,316.00
2018-07-31T04:03:46.880Z,336.00
2018-07-31T04:04:46.932Z,364.00
2018-07-31T04:05:46.889Z,388.00
2018-07-31T04:06:46.896Z,412.00
2018-07-31T04:07:46.900Z,440.00
2018-07-31T04:08:46.906Z,464.00
2018-07-31T04:09:46.918Z,484.00
2018-07-31T04:10:46.926Z,508.00
2018-07-31T04:11:46.933Z,528.00
2018-07-31T04:12:47.856Z,552.00
2018-07-31T04:13:46.950Z,568.00
2018-07-31T04:14:46.951Z,596.00
2018-07-31T04:15:46.958Z,612.00
2018-07-31T04:16:47.007Z,632.00
2018-07-31T04:17:46.972Z,648.00
2018-07-31T04:18:46.995Z,692.00
2018-07-31T04:19:46.983Z,772.00
2018-07-31T04:20:46.992Z,904.00
2018-07-31T04:21:46.990Z,1004.00
2018-07-31T04:22:47.006Z,1056.00
2018-07-31T04:23:47.015Z,988.00
2018-07-31T04:24:47.018Z,896.00
2018-07-31T04:25:47.031Z,888.00
2018-07-31T04:26:47.030Z,924.00
2018-07-31T04:27:47.041Z,964.00
2018-07-31T04:28:47.051Z,992.00
2018-07-31T04:29:47.051Z,1016.00
2018-07-31T04:30:47.060Z,1032.00
2018-07-31T04:31:47.071Z,1052.00
2018-07-31T04:32:47.073Z,1076.00
2018-07-31T04:33:47.079Z,1096.00
2018-07-31T04:34:47.088Z,1132.00
2018-07-31T04:35:47.110Z,1164.00
2018-07-31T04:36:47.105Z,1196.00
2018-07-31T04:37:47.111Z,1224.00
2018-07-31T04:38:47.124Z,1256.00
2018-07-31T04:39:47.130Z,1336.00
2018-07-31T04:40:47.130Z,1340.00
2018-07-31T04:41:47.143Z,1376.00
2018-07-31T04:42:47.156Z,1412.00
2018-07-31T04:43:47.152Z,1440.00
2018-07-31T04:44:47.169Z,1460.00
2018-07-31T04:45:47.176Z,1476.00
2018-07-31T04:46:47.172Z,1556.00
2018-07-31T04:47:47.192Z,1616.00
2018-07-31T04:48:47.192Z,1676.00
2018-07-31T04:49:47.196Z,1732.00
2018-07-31T04:50:47.211Z,1792.00
2018-07-31T04:51:47.212Z,1844.00
2018-07-31T04:52:47.228Z,1896.00
2018-07-31T04:53:47.225Z,1948.00
2018-07-31T04:54:47.236Z,1980.00
2018-07-31T04:55:47.247Z,2016.00
2018-07-31T04:56:47.262Z,2036.00
2018-07-31T04:57:47.264Z,2060.00
2018-07-31T04:58:47.268Z,2088.00
2018-07-31T04:59:47.272Z,2100.00
2018-07-31T05:00:47.289Z,2120.00
2018-07-31T05:01:47.294Z,2124.00
2018-07-31T05:02:47.294Z,2128.00
2018-07-31T05:03:47.309Z,2092.00
2018-07-31T05:04:47.308Z,2176.00
2018-07-31T05:05:47.323Z,2228.00
2018-07-31T05:06:47.329Z,2204.00
2018-07-31T05:07:47.337Z,2340.00
2018-07-31T05:08:47.349Z,2432.00
2018-07-31T05:09:47.358Z,2500.00
2018-07-31T05:10:47.363Z,2592.00
2018-07-31T05:11:47.366Z,2744.00
2018-07-31T05:12:47.374Z,2772.00
2018-07-31T05:13:47.382Z,2852.00
2018-07-31T05:14:47.385Z,2928.00
2018-07-31T05:15:47.397Z,3008.00
2018-07-31T05:16:47.405Z,3120.00
2018-07-31T05:17:47.420Z,3140.00
2018-07-31T05:18:47.424Z,3248.00
2018-07-31T05:19:47.425Z,3252.00
2018-07-31T05:20:47.433Z,3224.00
2018-07-31T05:21:47.451Z,3164.00
2018-07-31T05:22:47.457Z,3112.00
2018-07-31T05:23:47.453Z,3076.00
2018-07-31T05:24:47.475Z,3068.00
2018-07-31T05:25:47.473Z,3080.00
2018-07-31T05:26:47.490Z,3040.00
2018-07-31T05:27:47.488Z,2972.00
2018-07-31T05:28:47.506Z,3176.00
2018-07-31T05:29:47.515Z,3208.00
2018-07-31T05:30:47.514Z,3208.00
2018-07-31T05:31:47.532Z,3160.00
2018-07-31T05:32:47.600Z,3360.00
2018-07-31T05:33:47.538Z,3560.00
2018-07-31T05:34:47.550Z,3652.00
2018-07-31T05:35:47.559Z,4124.00
2018-07-31T05:36:47.561Z,6384.00
2018-07-31T05:37:47.588Z,9812.00
2018-07-31T05:38:47.579Z,11704.00
2018-07-31T05:39:47.596Z,12024.00
2018-07-31T05:40:47.604Z,12332.00
2018-07-31T05:41:47.606Z,12992.00
2018-07-31T05:42:47.622Z,13472.00
2018-07-31T05:43:47.631Z,12576.00
2018-07-31T05:44:47.640Z,13920.00
2018-07-31T05:45:47.645Z,14112.00
2018-07-31T05:46:47.661Z,14432.00
2018-07-31T05:47:47.669Z,14944.00
2018-07-31T05:48:47.681Z,13952.00
2018-07-31T05:49:47.782Z,13408.00
2018-07-31T05:50:47.716Z,12932.00
2018-07-31T05:51:47.761Z,13952.00
2018-07-31T05:52:47.748Z,12880.00
2018-07-31T05:53:48.416Z,11376.00
2018-07-31T05:54:47.754Z,11820.00
2018-07-31T05:55:47.758Z,11424.00
2018-07-31T05:56:47.775Z,12028.00
2018-07-31T05:57:47.780Z,12344.00
2018-07-31T05:58:47.795Z,12404.00
2018-07-31T05:59:47.808Z,12168.00
2018-07-31T06:00:47.818Z,14912.00
2018-07-31T06:01:47.832Z,10540.00
2018-07-31T06:02:47.845Z,15232.00
2018-07-31T06:03:47.864Z,15392.00
2018-07-31T06:04:47.875Z,15264.00
2018-07-31T06:05:47.886Z,14688.00
2018-07-31T06:06:47.898Z,15552.00
2018-07-31T06:07:47.917Z,15840.00
2018-07-31T06:08:47.922Z,14848.00
2018-07-31T06:09:47.944Z,14976.00
2018-07-31T06:10:47.977Z,16736.00
2018-07-31T06:11:47.975Z,17120.00
2018-07-31T06:12:47.980Z,17280.00
2018-07-31T06:13:48.890Z,17792.00
2018-07-31T06:14:48.014Z,18112.00
2018-07-31T06:15:48.023Z,19104.00
2018-07-31T06:16:48.048Z,19296.00
2018-07-31T06:17:48.054Z,18848.00
2018-07-31T06:18:48.068Z,18400.00
2018-07-31T06:19:48.089Z,17664.00
2018-07-31T06:20:48.103Z,16832.00
2018-07-31T06:21:48.125Z,17920.00
2018-07-31T06:22:48.135Z,18400.00
2018-07-31T06:23:48.150Z,18592.00
2018-07-31T06:24:48.166Z,18656.00
2018-07-31T06:25:48.182Z,18400.00
2018-07-31T06:26:48.192Z,18048.00
2018-07-31T06:27:48.205Z,18400.00
2018-07-31T06:28:48.229Z,19616.00
2018-07-31T06:29:48.266Z,20000.00
2018-07-31T06:30:48.259Z,19904.00
2018-07-31T06:31:48.281Z,18912.00
2018-07-31T06:32:48.334Z,20224.00
2018-07-31T06:33:48.311Z,19872.00
2018-07-31T06:34:48.336Z,21664.00
2018-07-31T06:35:48.354Z,21760.00
2018-07-31T06:36:48.365Z,21792.00
2018-07-31T06:37:48.374Z,21664.00
2018-07-31T06:38:48.393Z,21312.00
2018-07-31T06:39:48.413Z,21088.00
2018-07-31T06:40:48.430Z,21088.00
2018-07-31T06:41:48.447Z,21408.00
2018-07-31T06:42:48.468Z,21376.00
2018-07-31T06:43:48.482Z,22272.00
2018-07-31T06:44:48.516Z,21536.00
2018-07-31T06:45:48.522Z,17312.00
2018-07-31T06:46:48.549Z,13144.00
2018-07-31T06:47:48.580Z,16608.00
2018-07-31T06:48:48.584Z,20672.00
2018-07-31T06:49:48.589Z,22208.00
2018-07-31T06:50:48.619Z,22592.00
2018-07-31T06:51:48.644Z,22432.00
2018-07-31T06:52:48.648Z,22656.00
2018-07-31T06:53:48.695Z,23104.00
2018-07-31T06:54:48.687Z,22944.00
2018-07-31T06:55:48.709Z,20160.00
2018-07-31T06:56:48.738Z,21184.00
2018-07-31T06:57:48.743Z,22912.00
2018-07-31T06:58:48.758Z,23008.00
2018-07-31T06:59:48.777Z,20640.00
2018-07-31T07:00:48.797Z,21568.00
2018-07-31T07:01:48.819Z,22592.00
2018-07-31T07:02:48.849Z,22848.00
2018-07-31T07:03:48.858Z,24064.00
2018-07-31T07:04:48.872Z,24448.00
2018-07-31T07:05:48.905Z,23360.00
2018-07-31T07:06:48.919Z,22944.00
2018-07-31T07:07:48.936Z,19392.00
2018-07-31T07:08:48.964Z,20800.00
2018-07-31T07:09:48.971Z,18496.00
2018-07-31T07:10:49.011Z,16768.00
2018-07-31T07:11:49.016Z,15968.00
2018-07-31T07:12:49.030Z,15168.00
2018-07-31T07:13:49.061Z,13792.00
2018-07-31T07:14:49.075Z,16192.00
2018-07-31T07:15:49.097Z,17472.00
2018-07-31T07:16:49.123Z,17472.00
2018-07-31T07:17:49.131Z,19744.00
2018-07-31T07:18:49.163Z,19552.00
2018-07-31T07:19:49.175Z,18592.00
2018-07-31T07:20:49.190Z,22816.00
2018-07-31T07:21:49.220Z,21600.00
2018-07-31T07:22:49.234Z,23200.00
2018-07-31T07:23:49.249Z,23104.00
2018-07-31T07:24:49.268Z,25184.00
2018-07-31T07:25:49.292Z,26752.00
2018-07-31T07:26:49.313Z,16896.00
2018-07-31T07:27:49.350Z,18368.00
2018-07-31T07:28:49.354Z,13048.00
2018-07-31T07:29:49.363Z,9300.00
2018-07-31T07:30:49.390Z,12292.00
2018-07-31T07:31:49.406Z,12908.00
2018-07-31T07:32:49.433Z,9792.00
2018-07-31T07:33:49.511Z,14192.00
2018-07-31T07:34:49.478Z,18464.00
2018-07-31T07:35:49.491Z,14828.00
2018-07-31T07:36:49.508Z,13148.00
2018-07-31T07:37:49.536Z,14004.00
2018-07-31T07:38:49.548Z,9180.00
2018-07-31T07:39:49.596Z,12760.00
2018-07-31T07:40:49.588Z,13848.00
2018-07-31T07:41:49.600Z,14752.00
2018-07-31T07:42:49.631Z,13860.00
2018-07-31T07:43:49.644Z,13064.00
2018-07-31T07:44:49.658Z,18560.00
2018-07-31T07:45:49.678Z,21056.00
2018-07-31T07:46:49.696Z,21536.00
2018-07-31T07:47:49.715Z,20448.00
2018-07-31T07:48:49.726Z,23232.00
2018-07-31T07:49:49.754Z,25984.00
2018-07-31T07:50:49.763Z,25120.00
2018-07-31T07:51:49.798Z,15680.00
2018-07-31T07:52:49.807Z,19360.00
2018-07-31T07:53:49.861Z,21152.00
2018-07-31T07:54:49.840Z,19808.00
2018-07-31T07:55:49.876Z,14124.00
2018-07-31T07:56:49.878Z,19680.00
2018-07-31T07:57:49.894Z,17440.00
2018-07-31T07:58:49.910Z,14968.00
2018-07-31T07:59:49.937Z,15840.00
2018-07-31T08:00:49.964Z,17664.00
2018-07-31T08:01:49.974Z,14540.00
2018-07-31T08:02:49.995Z,15004.00
2018-07-31T08:03:50.044Z,20000.00
2018-07-31T08:04:50.052Z,15144.00
2018-07-31T08:05:50.051Z,15744.00
2018-07-31T08:06:50.070Z,16896.00
2018-07-31T08:07:50.091Z,12888.00
2018-07-31T08:08:50.105Z,12872.00
2018-07-31T08:09:50.177Z,16928.00
2018-07-31T08:10:50.147Z,13560.00
2018-07-31T08:11:50.159Z,12812.00
2018-07-31T08:12:50.191Z,12904.00
2018-07-31T08:13:50.200Z,15408.00
2018-07-31T08:14:50.220Z,18400.00
2018-07-31T08:15:50.239Z,25152.00
2018-07-31T08:16:50.254Z,23776.00
2018-07-31T08:17:50.294Z,21504.00
2018-07-31T08:18:50.299Z,20064.00
2018-07-31T08:19:50.311Z,16608.00
2018-07-31T08:20:50.341Z,15188.00
2018-07-31T08:21:50.349Z,13524.00
2018-07-31T08:22:50.365Z,11264.00
2018-07-31T08:23:50.394Z,13196.00
2018-07-31T08:24:50.405Z,13752.00
2018-07-31T08:25:50.431Z,18112.00
2018-07-31T08:26:50.459Z,23360.00
2018-07-31T08:27:50.506Z,21024.00
2018-07-31T08:28:50.480Z,18848.00
2018-07-31T08:29:50.508Z,10620.00
2018-07-31T08:30:50.521Z,21504.00
2018-07-31T08:31:50.567Z,25024.00
2018-07-31T08:32:50.562Z,18592.00
2018-07-31T08:33:50.578Z,18944.00
2018-07-31T08:34:50.619Z,12780.00
2018-07-31T08:35:50.623Z,20352.00
2018-07-31T08:36:50.636Z,28384.00
2018-07-31T08:37:50.657Z,28192.00
2018-07-31T08:38:50.676Z,27040.00
2018-07-31T08:39:50.692Z,28192.00
2018-07-31T08:40:50.715Z,27936.00
2018-07-31T08:41:50.749Z,25472.00
2018-07-31T08:42:50.758Z,25120.00
2018-07-31T08:43:50.817Z,24000.00
2018-07-31T08:44:50.800Z,19040.00
2018-07-31T08:45:50.813Z,18720.00
2018-07-31T08:46:50.839Z,20736.00
2018-07-31T08:47:50.858Z,27136.00
2018-07-31T08:48:50.880Z,10620.00
2018-07-31T08:49:50.946Z,20320.00
2018-07-31T08:50:50.930Z,18496.00
2018-07-31T08:51:50.956Z,19392.00
2018-07-31T08:52:50.966Z,19648.00
2018-07-31T08:53:50.991Z,26208.00
2018-07-31T08:54:51.004Z,26272.00
2018-07-31T08:55:51.077Z,25952.00
2018-07-31T08:56:51.109Z,25888.00
2018-07-31T08:57:51.078Z,25664.00
2018-07-31T08:58:51.093Z,25408.00
2018-07-31T08:59:51.124Z,24544.00
2018-07-31T09:00:51.142Z,24800.00
2018-07-31T09:01:51.160Z,18976.00
2018-07-31T09:02:51.216Z,23360.00
2018-07-31T09:03:51.209Z,20768.00
2018-07-31T09:04:51.236Z,22432.00
2018-07-31T09:05:51.252Z,24064.00
2018-07-31T09:06:51.953Z,24160.00
2018-07-31T09:07:51.296Z,24800.00
2018-07-31T09:08:51.389Z,24544.00
2018-07-31T09:09:51.338Z,14168.00
2018-07-31T09:10:51.385Z,21824.00
2018-07-31T09:11:51.388Z,23936.00
2018-07-31T09:12:51.412Z,18016.00
2018-07-31T09:13:51.432Z,17792.00
2018-07-31T09:14:51.458Z,21376.00
2018-07-31T09:15:51.486Z,16320.00
2018-07-31T09:16:51.501Z,14096.00
2018-07-31T09:17:51.531Z,13256.00
2018-07-31T09:18:51.548Z,11716.00
2018-07-31T09:19:51.581Z,11960.00
2018-07-31T09:20:51.633Z,9676.00
2018-07-31T09:21:51.624Z,10952.00
2018-07-31T09:22:51.643Z,12948.00
2018-07-31T09:23:51.668Z,11512.00
2018-07-31T09:24:51.774Z,12132.00
2018-07-31T09:25:51.714Z,12292.00
2018-07-31T09:26:52.455Z,12760.00
2018-07-31T09:27:51.756Z,11044.00
2018-07-31T09:28:51.788Z,11188.00
2018-07-31T09:29:51.799Z,12764.00
2018-07-31T09:30:51.953Z,14260.00
2018-07-31T09:31:51.843Z,16960.00
2018-07-31T09:32:51.866Z,15716.00
2018-07-31T09:33:51.890Z,20128.00
2018-07-31T09:34:51.905Z,17600.00
2018-07-31T09:35:51.930Z,16416.00
2018-07-31T09:36:51.949Z,20384.00
2018-07-31T09:37:51.995Z,20576.00
2018-07-31T09:38:51.989Z,11924.00
2018-07-31T09:39:52.010Z,11044.00
2018-07-31T09:40:52.033Z,10568.00
2018-07-31T09:41:52.058Z,10624.00
2018-07-31T09:42:52.074Z,11632.00
2018-07-31T09:43:52.093Z,12836.00
2018-07-31T09:44:52.124Z,13804.00
2018-07-31T09:45:52.152Z,13852.00
2018-07-31T09:46:52.164Z,18016.00
2018-07-31T09:47:52.173Z,20736.00
2018-07-31T09:48:52.190Z,14480.00
2018-07-31T09:49:52.221Z,18752.00
2018-07-31T09:50:52.234Z,13596.00
2018-07-31T09:51:52.261Z,11184.00
2018-07-31T09:52:52.282Z,10476.00
2018-07-31T09:53:52.294Z,10572.00
2018-07-31T09:54:52.321Z,11768.00
2018-07-31T09:55:52.340Z,12280.00
2018-07-31T09:56:52.354Z,10764.00
2018-07-31T09:57:52.378Z,10812.00
2018-07-31T09:58:52.399Z,11132.00
2018-07-31T09:59:52.410Z,14240.00
2018-07-31T10:00:52.436Z,11952.00
2018-07-31T10:01:52.450Z,19712.00
2018-07-31T10:02:52.493Z,16064.00
2018-07-31T10:03:52.494Z,12648.00
2018-07-31T10:04:52.516Z,22880.00
2018-07-31T10:05:52.533Z,17408.00
2018-07-31T10:06:52.553Z,24960.00
2018-07-31T10:07:52.566Z,26336.00
2018-07-31T10:08:52.585Z,22816.00
2018-07-31T10:09:52.611Z,24096.00
2018-07-31T10:10:52.625Z,24416.00
2018-07-31T10:11:52.713Z,24064.00
2018-07-31T10:12:52.666Z,18272.00
2018-07-31T10:13:52.697Z,20832.00
2018-07-31T10:14:52.705Z,23424.00
2018-07-31T10:15:52.736Z,12692.00
2018-07-31T10:16:52.761Z,16992.00
2018-07-31T10:17:52.788Z,17952.00
2018-07-31T10:18:52.797Z,16384.00
2018-07-31T10:19:52.829Z,9284.00
2018-07-31T10:20:52.835Z,9708.00
2018-07-31T10:21:52.860Z,8988.00
2018-07-31T10:22:52.881Z,11616.00
2018-07-31T10:23:52.940Z,9640.00
2018-07-31T10:24:52.925Z,8880.00
2018-07-31T10:25:52.944Z,9276.00
2018-07-31T10:26:52.962Z,9188.00
2018-07-31T10:27:52.985Z,12208.00
2018-07-31T10:28:53.006Z,13356.00
2018-07-31T10:29:53.025Z,20576.00
2018-07-31T10:30:53.117Z,16928.00
2018-07-31T10:31:53.074Z,15308.00
2018-07-31T10:32:53.084Z,12624.00
2018-07-31T10:33:53.099Z,15740.00
2018-07-31T10:34:53.123Z,21984.00
2018-07-31T10:35:53.138Z,22592.00
2018-07-31T10:36:53.161Z,21824.00
2018-07-31T10:37:53.233Z,12992.00
2018-07-31T10:38:53.198Z,12652.00
2018-07-31T10:39:53.230Z,14316.00
2018-07-31T10:40:53.240Z,12644.00
2018-07-31T10:41:53.257Z,16192.00
2018-07-31T10:42:53.271Z,17600.00
2018-07-31T10:43:53.337Z,20000.00
2018-07-31T10:44:53.316Z,19072.00
2018-07-31T10:45:53.334Z,18272.00
2018-07-31T10:46:53.352Z,12492.00
2018-07-31T10:47:53.386Z,12212.00
2018-07-31T10:48:53.450Z,8344.00
2018-07-31T10:49:53.409Z,7968.00
2018-07-31T10:50:53.433Z,7720.00
2018-07-31T10:51:53.453Z,7428.00
2018-07-31T10:52:53.474Z,7332.00
2018-07-31T10:53:53.494Z,7380.00
2018-07-31T10:54:53.541Z,7584.00
2018-07-31T10:55:53.535Z,7572.00
2018-07-31T10:56:53.552Z,7748.00
2018-07-31T10:57:53.571Z,8020.00
2018-07-31T10:58:53.590Z,9000.00
2018-07-31T10:59:53.619Z,11148.00
2018-07-31T11:00:53.627Z,9132.00
2018-07-31T11:01:53.641Z,9432.00
2018-07-31T11:02:53.764Z,11180.00
2018-07-31T11:03:53.711Z,12424.00
2018-07-31T11:04:53.686Z,11680.00
2018-07-31T11:05:53.721Z,12016.00
2018-07-31T11:06:53.731Z,12300.00
2018-07-31T11:07:53.753Z,14196.00
2018-07-31T11:08:53.773Z,15916.00
2018-07-31T11:09:53.796Z,12472.00
2018-07-31T11:10:53.804Z,12388.00
2018-07-31T11:11:53.811Z,12164.00
2018-07-31T11:12:53.838Z,11900.00
2018-07-31T11:13:53.855Z,11176.00
2018-07-31T11:14:53.868Z,12908.00
2018-07-31T11:15:53.892Z,13528.00
2018-07-31T11:16:53.907Z,12220.00
2018-07-31T11:17:53.921Z,13012.00
2018-07-31T11:18:53.941Z,14040.00
2018-07-31T11:19:53.960Z,18080.00
2018-07-31T11:20:53.981Z,19360.00
2018-07-31T11:21:53.998Z,9344.00
2018-07-31T11:22:54.007Z,19072.00
2018-07-31T11:23:54.029Z,15468.00
2018-07-31T11:24:54.046Z,9400.00
2018-07-31T11:25:54.068Z,8152.00
2018-07-31T11:26:54.089Z,7348.00
2018-07-31T11:27:54.102Z,7960.00
2018-07-31T11:28:54.117Z,9344.00
2018-07-31T11:29:54.136Z,16512.00
2018-07-31T11:30:54.156Z,19040.00
2018-07-31T11:31:54.171Z,18272.00
2018-07-31T11:32:54.235Z,18016.00
2018-07-31T11:33:54.206Z,9400.00
2018-07-31T11:34:54.226Z,17824.00
2018-07-31T11:35:54.244Z,8976.00
2018-07-31T11:36:54.268Z,9044.00
2018-07-31T11:37:54.274Z,8684.00
2018-07-31T11:38:54.299Z,8000.00
2018-07-31T11:39:54.315Z,13988.00
2018-07-31T11:40:54.382Z,12704.00
2018-07-31T11:41:54.354Z,17152.00
2018-07-31T11:42:54.364Z,10284.00
2018-07-31T11:43:54.439Z,15836.00
2018-07-31T11:44:54.401Z,15320.00
2018-07-31T11:45:54.423Z,14960.00
2018-07-31T11:46:54.444Z,14752.00
2018-07-31T11:47:54.464Z,14568.00
2018-07-31T11:48:54.480Z,14880.00
2018-07-31T11:49:54.569Z,14136.00
2018-07-31T11:50:54.634Z,13632.00
2018-07-31T11:51:54.529Z,14864.00
2018-07-31T11:52:54.581Z,14356.00
2018-07-31T11:53:54.567Z,14908.00
2018-07-31T11:54:54.579Z,14304.00
2018-07-31T11:55:54.638Z,14180.00
2018-07-31T11:56:54.617Z,14312.00
2018-07-31T11:57:54.632Z,13304.00
2018-07-31T11:58:54.653Z,13368.00
2018-07-31T11:59:54.676Z,13364.00
2018-07-31T12:00:54.690Z,11004.00
2018-07-31T12:01:54.706Z,7572.00
2018-07-31T12:02:54.735Z,6340.00
2018-07-31T12:03:54.750Z,5072.00
2018-07-31T12:04:55.513Z,6028.00
2018-07-31T12:05:54.776Z,5984.00
2018-07-31T12:06:54.799Z,6132.00
2018-07-31T12:07:54.813Z,6092.00
2018-07-31T12:08:54.824Z,6132.00
2018-07-31T12:09:54.938Z,6068.00
2018-07-31T12:10:54.869Z,6048.00
2018-07-31T12:11:54.878Z,5812.00
2018-07-31T12:12:54.920Z,5104.00
2018-07-31T12:13:54.976Z,6336.00
2018-07-31T12:14:54.931Z,6436.00
2018-07-31T12:15:54.956Z,6568.00
2018-07-31T12:16:54.960Z,6436.00